Time;durP1;ratioP1;P1;durP2;ratioP2;P2;SDS_P1;SDS_P2;PMS_P1;PMS_P2;Temp;Humidity;BMP_temperature;BMP_pressure;BME280_temperature;BME280_humidity;BME280_pressure;Samples;Min_cycle;Max_cycle;Signal;HPM_P1;HPM_P2
2021/01/22 00:00:43;;;;;;;;;;;;;;;4.64;100.00;98100.00;5058251;28;19956;-75
2021/01/22 00:03:08;;;;;;;;;;;;;;;4.62;100.00;98093.19;5077718;28;19928;-75
2021/01/22 00:05:37;;;;;;;;;;;;;;;4.62;100.00;98085.75;5042058;28;19948;-75
2021/01/22 00:08:02;;;;;;;;;;;;;;;4.60;100.00;98093.53;5074657;28;19964;-75
2021/01/22 00:10:27;;;;;;;;;;;;;;;4.60;100.00;98089.97;5058066;28;19916;-75
2021/01/22 00:12:53;;;;;;;;;;;;;;;4.60;100.00;98099.03;5049099;28;19920;-75
2021/01/22 00:15:21;;;;;;;;;;;;;;;4.60;100.00;98104.53;5057958;28;20381;-75
2021/01/22 00:17:51;;;;;;;;;;;;;;;4.58;100.00;98106.75;5074390;28;19926;-75
2021/01/22 00:20:16;;;;;;;;;;;;;;;4.60;100.00;98103.72;5043613;28;19916;-75
2021/01/22 00:22:44;;;;;;;;;;;;;;;4.55;100.00;98103.84;5056718;28;19921;-75
2021/01/22 00:25:10;;;;;;;;;;;;;;;4.56;100.00;98098.00;5058715;28;19923;-75
2021/01/22 00:27:35;;;;;;;;;;;;;;;4.54;100.00;98100.28;5053958;28;19921;-75
2021/01/22 00:30:10;;;;;;;;;;;;;;;4.54;100.00;98105.78;5058146;28;19931;-75
2021/01/22 00:32:38;;;;;;;;;;;;;;;4.53;100.00;98109.63;5060612;28;19959;-75
2021/01/22 00:35:06;;;;;;;;;;;;;;;4.51;100.00;98109.13;5057731;28;19917;-75
2021/01/22 00:37:39;;;;;;;;;;;;;;;4.50;100.00;98107.50;5054880;28;19917;-75
2021/01/22 00:40:05;;;;;;;;;;;;;;;4.48;100.00;98113.34;5054968;28;19928;-75
2021/01/22 00:42:31;;;;;;;;;;;;;;;4.51;100.00;98105.56;5053112;28;20368;-75
2021/01/22 00:45:07;;;;;;;;;;;;;;;4.50;100.00;98115.75;5062230;28;20372;-75
2021/01/22 00:47:32;;;;;;;;;;;;;;;4.48;100.00;98113.34;5074783;28;19943;-75
2021/01/22 00:50:00;;;;;;;;;;;;;;;4.50;100.00;98103.97;5058071;28;19916;-75
2021/01/22 00:52:26;;;;;;;;;;;;;;;4.50;100.00;98104.75;5057264;28;20372;-75
2021/01/22 00:54:57;;;;;;;;;;;;;;;4.49;100.00;98108.66;5067633;28;19967;-75
2021/01/22 00:57:22;;;;;;;;;;;;;;;4.45;100.00;98108.44;5073770;28;19950;-75
2021/01/22 00:59:57;;;;;;;;;;;;;;;4.47;100.00;98108.16;5057092;28;19916;-75
2021/01/22 01:02:26;;;;;;;;;;;;;;;4.44;100.00;98111.53;5041942;28;19956;-75
2021/01/22 01:04:59;;;;;;;;;;;;;;;4.44;100.00;98109.56;5053083;28;19920;-75
2021/01/22 01:07:27;;;;;;;;;;;;;;;4.44;100.00;98125.25;5060018;28;19925;-75
2021/01/22 01:09:53;;;;;;;;;;;;;;;4.43;100.00;98123.63;5035775;28;20297;-75
2021/01/22 01:12:18;;;;;;;;;;;;;;;4.41;100.00;98120.38;5059736;28;19917;-75
2021/01/22 01:14:43;;;;;;;;;;;;;;;4.41;100.00;98120.38;5059323;28;19916;-75
2021/01/22 01:17:09;;;;;;;;;;;;;;;4.42;100.00;98125.56;5042563;28;20003;-75
2021/01/22 01:19:34;;;;;;;;;;;;;;;4.43;100.00;98126.38;5036550;28;19920;-75
2021/01/22 01:22:25;;;;;;;;;;;;;;;4.39;100.00;98131.69;5074803;28;19923;-75
2021/01/22 01:24:51;;;;;;;;;;;;;;;4.40;100.00;98129.75;5055085;28;21458;-75
2021/01/22 01:27:19;;;;;;;;;;;;;;;4.38;100.00;98129.25;5077069;28;20007;-75
2021/01/22 01:29:44;;;;;;;;;;;;;;;4.40;100.00;98124.25;5051341;28;19956;-75
2021/01/22 01:32:12;;;;;;;;;;;;;;;4.38;100.00;98113.56;5066783;28;19916;-75
2021/01/22 01:34:37;;;;;;;;;;;;;;;4.38;100.00;98112.78;5069216;28;19923;-75
2021/01/22 01:37:05;;;;;;;;;;;;;;;4.36;100.00;98112.25;5059211;28;19912;-75
2021/01/22 01:39:31;;;;;;;;;;;;;;;4.37;100.00;98120.19;5055269;28;19916;-75
2021/01/22 01:41:56;;;;;;;;;;;;;;;4.36;100.00;98115.81;5073226;28;20426;-75
2021/01/22 01:44:21;;;;;;;;;;;;;;;4.33;100.00;98121.13;5073998;28;19916;-75
2021/01/22 01:46:47;;;;;;;;;;;;;;;4.35;100.00;98119.69;5074137;28;19921;-75
2021/01/22 01:49:12;;;;;;;;;;;;;;;4.34;100.00;98117.25;5072368;28;19916;-75
2021/01/22 01:51:38;;;;;;;;;;;;;;;4.35;100.00;98116.16;5036487;28;19931;-75
2021/01/22 01:54:03;;;;;;;;;;;;;;;4.33;100.00;98115.63;5053463;28;20320;-75
2021/01/22 01:56:28;;;;;;;;;;;;;;;4.32;100.00;98111.25;5074907;28;19913;-75
2021/01/22 01:58:56;;;;;;;;;;;;;;;4.31;100.00;98106.88;5030768;28;19916;-75
2021/01/22 02:01:25;;;;;;;;;;;;;;;4.32;100.00;98108.50;5073431;28;20265;-75
2021/01/22 02:03:50;;;;;;;;;;;;;;;4.31;100.00;98110.44;5073719;28;19963;-74
2021/01/22 02:06:16;;;;;;;;;;;;;;;4.29;100.00;98106.38;5074945;28;19920;-74
2021/01/22 02:08:41;;;;;;;;;;;;;;;4.29;100.00;98109.97;5073654;28;19916;-74
2021/01/22 02:11:07;;;;;;;;;;;;;;;4.30;100.00;98110.75;5069664;28;19916;-74
2021/01/22 02:13:32;;;;;;;;;;;;;;;4.25;100.00;98112.50;5070214;28;19923;-74
2021/01/22 02:15:58;;;;;;;;;;;;;;;4.27;100.00;98111.38;5058633;28;19913;-74
2021/01/22 02:18:24;;;;;;;;;;;;;;;4.27;100.00;98111.38;5040534;28;19924;-74
2021/01/22 02:20:52;;;;;;;;;;;;;;;4.24;100.00;98105.38;5056607;28;19917;-75
2021/01/22 02:23:19;;;;;;;;;;;;;;;4.23;100.00;98105.69;5036628;28;19924;-74
2021/01/22 02:25:47;;;;;;;;;;;;;;;4.23;100.00;98120.25;5039223;28;19917;-74
2021/01/22 02:28:13;;;;;;;;;;;;;;;4.22;100.00;98123.31;5064577;28;19924;-75
2021/01/22 02:30:42;;;;;;;;;;;;;;;4.21;100.00;98122.50;5034320;28;19917;-75
2021/01/22 02:33:07;;;;;;;;;;;;;;;4.23;100.00;98127.66;5056401;28;20369;-75
2021/01/22 02:35:35;;;;;;;;;;;;;;;4.19;100.00;98138.47;5057466;28;20466;-74
2021/01/22 02:38:03;;;;;;;;;;;;;;;4.15;100.00;98134.72;5057465;28;19947;-75
2021/01/22 02:40:29;;;;;;;;;;;;;;;4.17;100.00;98139.91;5038883;28;19920;-75
2021/01/22 02:42:54;;;;;;;;;;;;;;;4.15;100.00;98151.22;5055496;28;19942;-75
2021/01/22 02:45:19;;;;;;;;;;;;;;;4.15;100.00;98151.22;5040345;28;19924;-75
2021/01/22 02:47:45;;;;;;;;;;;;;;;4.16;100.00;98147.34;5074415;28;19970;-74
2021/01/22 02:50:11;;;;;;;;;;;;;;;4.10;100.00;98151.31;5054392;28;19948;-75
2021/01/22 02:52:37;;;;;;;;;;;;;;;4.08;100.00;98148.06;5048743;28;20008;-75
2021/01/22 02:55:02;;;;;;;;;;;;;;;4.08;100.00;98152.75;5039749;28;19917;-75
2021/01/22 02:57:31;;;;;;;;;;;;;;;4.08;100.00;98148.06;5054410;28;19920;-75
2021/01/22 03:00:12;;;;;;;;;;;;;;;4.07;100.00;98154.69;5054708;28;19940;-74
2021/01/22 03:02:53;;;;;;;;;;;;;;;4.06;100.00;98155.78;5073154;28;19942;-74
2021/01/22 03:05:21;;;;;;;;;;;;;;;4.03;100.00;98157.22;5058799;28;20277;-74
2021/01/22 03:07:47;;;;;;;;;;;;;;;4.03;100.00;98150.91;5078360;28;19986;-75
2021/01/22 03:10:23;;;;;;;;;;;;;;;4.01;100.00;98153.16;5043643;28;19912;-75
2021/01/22 03:12:51;;;;;;;;;;;;;;;4.00;100.00;98151.53;5057456;28;19917;-74
2021/01/22 03:15:19;;;;;;;;;;;;;;;4.00;100.00;98152.34;5042295;28;20007;-74
2021/01/22 03:17:48;;;;;;;;;;;;;;;3.98;100.00;98157.34;5045153;28;19927;-74
2021/01/22 03:20:14;;;;;;;;;;;;;;;4.00;100.00;98157.03;5035156;28;20257;-74
2021/01/22 03:22:40;;;;;;;;;;;;;;;3.98;100.00;98159.28;5049378;28;19924;-74
2021/01/22 03:25:05;;;;;;;;;;;;;;;3.98;100.00;98156.53;5056310;28;19917;-74
2021/01/22 03:27:30;;;;;;;;;;;;;;;3.96;100.00;98156.03;5079368;28;20388;-74
2021/01/22 03:29:56;;;;;;;;;;;;;;;3.96;100.00;98167.84;5069504;28;19912;-74
2021/01/22 03:32:21;;;;;;;;;;;;;;;3.95;100.00;98163.44;5074885;28;19995;-74
2021/01/22 03:34:46;;;;;;;;;;;;;;;3.97;100.00;98157.66;5077304;28;20007;-74
2021/01/22 03:37:12;;;;;;;;;;;;;;;3.91;100.00;98159.69;5069300;28;19916;-74
2021/01/22 03:39:37;;;;;;;;;;;;;;;3.90;100.00;98149.00;5071163;28;20402;-74
2021/01/22 03:42:03;;;;;;;;;;;;;;;3.89;100.00;98144.66;5075083;28;19923;-74
2021/01/22 03:44:29;;;;;;;;;;;;;;;3.86;100.00;98140.59;5070629;28;19924;-74
2021/01/22 03:46:54;;;;;;;;;;;;;;;3.83;100.00;98137.66;5075214;28;19925;-74
2021/01/22 03:49:19;;;;;;;;;;;;;;;3.86;100.00;98150.75;5055472;28;20350;-74
2021/01/22 03:51:45;;;;;;;;;;;;;;;3.84;100.00;98147.50;5075177;28;19970;-74
2021/01/22 03:54:10;;;;;;;;;;;;;;;3.82;100.00;98150.56;5075475;28;20004;-74
2021/01/22 03:56:35;;;;;;;;;;;;;;;3.84;100.00;98155.72;5076660;28;19916;-74
2021/01/22 03:59:01;;;;;;;;;;;;;;;3.80;100.00;98161.03;5052065;28;19984;-74
2021/01/22 04:01:29;;;;;;;;;;;;;;;3.78;100.00;98160.53;5075805;28;19921;-74
2021/01/22 04:03:54;;;;;;;;;;;;;;;3.75;100.00;98161.94;5074723;28;19921;-75
2021/01/22 04:06:19;;;;;;;;;;;;;;;3.73;100.00;98164.22;5044798;28;19920;-75
2021/01/22 04:08:45;;;;;;;;;;;;;;;3.71;100.00;98166.44;5071929;28;19916;-75
2021/01/22 04:11:10;;;;;;;;;;;;;;;3.72;100.00;98175.47;5056477;28;19920;-74
2021/01/22 04:13:36;;;;;;;;;;;;;;;3.71;100.00;98182.91;5075394;28;20254;-75
2021/01/22 04:16:01;;;;;;;;;;;;;;;3.71;100.00;98188.41;5059519;28;20372;-74
2021/01/22 04:18:26;;;;;;;;;;;;;;;3.70;100.00;98200.47;5062024;28;20304;-74
2021/01/22 04:20:52;;;;;;;;;;;;;;;3.66;100.00;98215.94;5066333;28;19917;-74
2021/01/22 04:23:17;;;;;;;;;;;;;;;3.68;100.00;98213.72;5054067;28;19917;-74
2021/01/22 04:25:43;;;;;;;;;;;;;;;3.70;100.00;98214.22;5072290;28;19916;-75
2021/01/22 04:28:08;;;;;;;;;;;;;;;3.67;100.00;98220.31;5060531;28;20015;-74
2021/01/22 04:30:33;;;;;;;;;;;;;;;3.66;100.00;98212.41;5056238;28;19917;-74
2021/01/22 04:32:59;;;;;;;;;;;;;;;3.66;100.00;98207.72;5055012;28;19916;-74
2021/01/22 04:35:24;;;;;;;;;;;;;;;3.67;100.00;98208.53;5057940;28;19916;-74
2021/01/22 04:37:49;;;;;;;;;;;;;;;3.64;100.00;98209.94;5078234;28;20351;-74
2021/01/22 04:40:15;;;;;;;;;;;;;;;3.64;100.00;98203.66;5039237;28;19916;-74
2021/01/22 04:42:40;;;;;;;;;;;;;;;3.64;100.00;98204.44;5053393;28;19924;-74
2021/01/22 04:45:10;;;;;;;;;;;;;;;3.61;100.00;98198.75;5068523;28;19970;-74
2021/01/22 04:47:36;;;;;;;;;;;;;;;3.58;100.00;98195.50;5053070;28;19928;-74
2021/01/22 04:50:02;;;;;;;;;;;;;;;3.60;100.00;98203.44;5049634;28;19917;-74
2021/01/22 04:52:28;;;;;;;;;;;;;;;3.58;100.00;98205.69;5058240;28;19924;-74
2021/01/22 04:54:53;;;;;;;;;;;;;;;3.56;100.00;98208.72;5057272;28;19917;-74
2021/01/22 04:57:19;;;;;;;;;;;;;;;3.59;100.00;98204.53;5051412;28;20316;-75
2021/01/22 04:59:50;;;;;;;;;;;;;;;3.56;100.00;98202.41;5058041;28;19931;-75
2021/01/22 05:02:16;;;;;;;;;;;;;;;3.51;100.00;98197.00;5041227;28;19939;-75
2021/01/22 05:04:41;;;;;;;;;;;;;;;3.49;100.00;98191.03;5074547;28;20361;-75
2021/01/22 05:07:07;;;;;;;;;;;;;;;3.50;100.00;98198.16;5051634;28;19917;-75
2021/01/22 05:09:33;;;;;;;;;;;;;;;3.48;100.00;98200.38;5040328;28;19917;-75
2021/01/22 05:11:58;;;;;;;;;;;;;;;3.46;100.00;98199.88;5068680;28;19924;-74
2021/01/22 05:14:24;;;;;;;;;;;;;;;3.43;100.00;98203.25;5069456;28;19932;-74
2021/01/22 05:17:05;;;;;;;;;;;;;;;3.39;100.00;98213.19;5077305;28;19913;-74
2021/01/22 05:19:33;;;;;;;;;;;;;;;3.36;100.00;98214.59;5055334;28;20005;-74
2021/01/22 05:22:00;;;;;;;;;;;;;;;3.34;100.00;98217.66;5049323;28;19917;-74
2021/01/22 05:24:28;;;;;;;;;;;;;;;3.30;100.00;98221.28;5045762;28;19983;-74
2021/01/22 05:27:15;;;;;;;;;;;;;;;3.24;100.00;98223.31;5075122;28;19966;-74
2021/01/22 05:29:43;;;;;;;;;;;;;;;3.24;100.00;98225.25;5042475;28;20280;-75
2021/01/22 05:32:24;;;;;;;;;;;;;;;3.22;100.00;98231.03;5054991;28;19938;-75
2021/01/22 05:34:49;;;;;;;;;;;;;;;3.17;100.00;98244.00;5067397;28;19917;-75
2021/01/22 05:37:15;;;;;;;;;;;;;;;3.13;100.00;98238.31;5072283;28;20303;-75
2021/01/22 05:39:40;;;;;;;;;;;;;;;3.10;99.95;98233.44;5058675;28;19917;-75
2021/01/22 05:42:07;;;;;;;;;;;;;;;3.08;100.00;98230.19;5064132;28;19920;-75
2021/01/22 05:44:33;;;;;;;;;;;;;;;2.99;100.00;98230.06;5040994;28;19917;-75
2021/01/22 05:47:06;;;;;;;;;;;;;;;2.97;100.00;98235.03;5071281;28;19928;-75
2021/01/22 05:49:34;;;;;;;;;;;;;;;2.97;99.97;98240.50;5041845;28;20357;-75
2021/01/22 05:51:59;;;;;;;;;;;;;;;2.95;99.87;98244.66;5047176;28;20291;-74
2021/01/22 05:54:36;;;;;;;;;;;;;;;2.93;99.95;98244.16;5055448;28;19999;-75
2021/01/22 05:57:04;;;;;;;;;;;;;;;2.89;99.85;98258.44;5028793;28;19921;-75
2021/01/22 05:59:32;;;;;;;;;;;;;;;2.87;99.91;98263.44;5060220;28;19968;-75
2021/01/22 06:01:58;;;;;;;;;;;;;;;2.84;99.93;98264.03;5047411;28;19921;-75
2021/01/22 06:04:26;;;;;;;;;;;;;;;2.82;99.67;98266.25;5038616;28;20298;-75
2021/01/22 06:06:51;;;;;;;;;;;;;;;2.79;99.75;98269.59;5056796;28;19928;-75
2021/01/22 06:09:35;;;;;;;;;;;;;;;2.77;99.83;98279.22;5041148;28;19939;-75
2021/01/22 06:12:01;;;;;;;;;;;;;;;2.75;99.81;98276.75;5041116;28;19944;-75
2021/01/22 06:14:27;;;;;;;;;;;;;;;2.73;99.92;98278.16;5029607;28;19923;-75
2021/01/22 06:16:53;;;;;;;;;;;;;;;2.69;100.00;98278.75;5036118;28;19923;-74
2021/01/22 06:19:18;;;;;;;;;;;;;;;2.69;99.92;98286.97;5071297;28;19917;-75
2021/01/22 06:22:22;;;;;;;;;;;;;;;2.66;100.00;98289.50;5065876;28;19919;-76
2021/01/22 06:24:48;;;;;;;;;;;;;;;2.64;100.00;98310.91;5036742;28;19917;-76
2021/01/22 06:27:13;;;;;;;;;;;;;;;2.65;100.00;98309.81;5036540;28;20002;-75
2021/01/22 06:29:38;;;;;;;;;;;;;;;2.62;100.00;98316.72;5050495;28;19967;-75
2021/01/22 06:32:04;;;;;;;;;;;;;;;2.61;100.00;98315.06;5027988;28;19948;-75
2021/01/22 06:34:30;;;;;;;;;;;;;;;2.60;100.00;98323.59;5037465;28;19988;-75
2021/01/22 06:36:56;;;;;;;;;;;;;;;2.61;100.00;98333.44;5052497;28;20053;-75
2021/01/22 06:39:21;;;;;;;;;;;;;;;2.59;100.00;98331.00;5015815;28;19917;-75
2021/01/22 06:41:47;;;;;;;;;;;;;;;2.60;100.00;98337.28;5008933;28;19923;-75
2021/01/22 06:44:12;;;;;;;;;;;;;;;2.58;100.00;98336.75;5012969;28;19913;-75
2021/01/22 06:46:37;;;;;;;;;;;;;;;2.57;100.00;98335.16;5035490;28;19921;-75
2021/01/22 06:49:05;;;;;;;;;;;;;;;2.58;100.00;98336.75;5052605;28;19917;-75
2021/01/22 06:51:33;;;;;;;;;;;;;;;2.55;100.00;98338.16;5053911;28;19988;-75
2021/01/22 06:54:04;;;;;;;;;;;;;;;2.57;99.88;98346.09;5021439;28;19920;-75
2021/01/22 06:56:38;;;;;;;;;;;;;;;2.54;99.90;98342.03;5053117;28;19924;-75
2021/01/22 06:59:20;;;;;;;;;;;;;;;2.55;99.82;98342.84;5040773;28;19944;-75
2021/01/22 07:01:45;;;;;;;;;;;;;;;2.55;99.97;98348.31;5071566;28;19932;-75
2021/01/22 07:04:31;;;;;;;;;;;;;;;2.53;99.94;98343.13;5040528;28;19921;-75
2021/01/22 07:07:03;;;;;;;;;;;;;;;2.53;100.00;98348.59;5063585;28;19920;-75
2021/01/22 07:09:45;;;;;;;;;;;;;;;2.52;99.90;98354.38;5042845;28;19923;-75
2021/01/22 07:12:30;;;;;;;;;;;;;;;2.51;99.85;98341.78;5060205;28;19962;-75
2021/01/22 07:14:56;;;;;;;;;;;;;;;2.49;99.93;98352.25;5071739;28;19916;-75
2021/01/22 07:17:23;;;;;;;;;;;;;;;2.49;99.88;98354.97;5039813;28;19920;-75
2021/01/22 07:19:54;;;;;;;;;;;;;;;2.49;99.86;98353.03;5056517;28;19916;-75
2021/01/22 07:22:19;;;;;;;;;;;;;;;2.44;99.90;98353.91;5053052;28;19916;-75
2021/01/22 07:24:48;;;;;;;;;;;;;;;2.43;100.00;98348.75;5050087;28;20405;-75
2021/01/22 07:27:14;;;;;;;;;;;;;;;2.43;99.87;98356.97;5038712;28;19920;-75
2021/01/22 07:29:40;;;;;;;;;;;;;;;2.41;99.93;98357.25;5040305;28;19945;-76
2021/01/22 07:32:06;;;;;;;;;;;;;;;2.40;99.98;98360.28;5056111;28;19916;-75
2021/01/22 07:35:12;;;;;;;;;;;;;;;2.39;99.90;98370.41;5052361;28;19931;-78
2021/01/22 07:37:38;;;;;;;;;;;;;;;2.35;99.95;98383.06;5064314;28;20432;-75
2021/01/22 07:40:08;;;;;;;;;;;;;;;2.34;99.90;98392.41;5069479;28;20385;-75
2021/01/22 07:42:36;;;;;;;;;;;;;;;2.30;99.92;98391.34;5039745;28;19986;-75
2021/01/22 07:45:09;;;;;;;;;;;;;;;2.30;99.91;98405.03;5073105;28;19923;-75
2021/01/22 07:47:37;;;;;;;;;;;;;;;2.27;99.75;98402.88;5053579;28;19917;-75
2021/01/22 07:50:05;;;;;;;;;;;;;;;2.25;99.60;98410.56;5058305;28;19928;-76
2021/01/22 07:52:34;;;;;;;;;;;;;;;2.22;99.49;98416.63;5077140;28;19923;-75
2021/01/22 07:55:02;;;;;;;;;;;;;;;2.19;99.52;98411.75;5075425;28;19913;-80
2021/01/22 07:57:27;;;;;;;;;;;;;;;2.17;99.39;98428.47;5073607;28;19923;-75
2021/01/22 07:59:53;;;;;;;;;;;;;;;2.14;99.43;98436.44;5077144;28;20376;-75
2021/01/22 08:02:19;;;;;;;;;;;;;;;2.11;99.34;98442.50;5077499;28;19925;-75
2021/01/22 08:04:45;;;;;;;;;;;;;;;2.07;99.40;98444.19;5076430;28;19916;-75
2021/01/22 08:07:10;;;;;;;;;;;;;;;2.03;99.33;98454.06;5052649;28;19921;-75
2021/01/22 08:09:36;;;;;;;;;;;;;;;2.00;99.57;98452.72;5059514;28;19995;-75
2021/01/22 08:12:08;;;;;;;;;;;;;;;1.98;99.37;98450.28;5076404;28;19966;-75
2021/01/22 08:14:34;;;;;;;;;;;;;;;1.95;99.46;98459.09;5067628;28;19956;-75
2021/01/22 08:17:00;;;;;;;;;;;;;;;1.94;99.40;98460.16;5052293;28;19917;-75
2021/01/22 08:19:25;;;;;;;;;;;;;;;1.90;99.51;98458.31;5045526;28;20281;-75
2021/01/22 08:21:53;;;;;;;;;;;;;;;1.87;99.52;98467.91;5043062;28;19924;-75
2021/01/22 08:24:19;;;;;;;;;;;;;;;1.88;99.63;98466.78;5050812;28;19922;-75
2021/01/22 08:26:45;;;;;;;;;;;;;;;1.86;99.61;98474.47;5055029;28;19987;-75
2021/01/22 08:29:10;;;;;;;;;;;;;;;1.89;99.73;98478.56;5075615;28;20403;-75
2021/01/22 08:31:45;;;;;;;;;;;;;;;1.90;99.66;98489.22;5058904;28;20288;-75
2021/01/22 08:34:10;;;;;;;;;;;;;;;1.91;99.91;98485.38;5037931;28;19958;-75
2021/01/22 08:36:36;;;;;;;;;;;;;;;1.93;100.00;98491.41;5055792;28;19917;-74
2021/01/22 08:39:01;;;;;;;;;;;;;;;1.99;100.00;98494.91;5068412;28;20433;-75
2021/01/22 08:41:27;;;;;;;;;;;;;;;2.05;100.00;98498.41;5078936;28;20361;-75
2021/01/22 08:43:52;;;;;;;;;;;;;;;2.14;100.00;98502.16;5053889;28;20353;-75
2021/01/22 08:46:18;;;;;;;;;;;;;;;2.24;100.00;98502.06;5075148;28;19969;-75
2021/01/22 08:48:43;;;;;;;;;;;;;;;2.31;100.00;98510.75;5057153;28;20266;-75
2021/01/22 08:51:09;;;;;;;;;;;;;;;2.37;100.00;98525.25;5053590;28;19912;-74
2021/01/22 08:53:35;;;;;;;;;;;;;;;2.44;100.00;98525.72;5077278;28;20277;-75
2021/01/22 08:56:11;;;;;;;;;;;;;;;2.51;100.00;98528.94;5076451;28;20003;-75
2021/01/22 08:58:55;;;;;;;;;;;;;;;2.60;100.00;98531.88;5072786;28;19955;-75
2021/01/22 09:01:21;;;;;;;;;;;;;;;2.72;100.00;98535.00;5031377;28;19920;-75
2021/01/22 09:03:46;;;;;;;;;;;;;;;2.78;100.00;98533.84;5057202;28;19928;-75
2021/01/22 09:06:11;;;;;;;;;;;;;;;2.89;100.00;98545.53;5076204;28;19916;-74
2021/01/22 09:08:51;;;;;;;;;;;;;;;2.98;100.00;98545.69;5038816;28;19959;-75
2021/01/22 09:11:34;;;;;;;;;;;;;;;3.11;100.00;98554.03;5047187;28;19916;-75
2021/01/22 09:13:59;;;;;;;;;;;;;;;3.21;100.00;98553.09;5057377;28;20932;-75
2021/01/22 09:16:27;;;;;;;;;;;;;;;3.33;100.00;98563.66;5076662;28;19923;-75
2021/01/22 09:18:59;;;;;;;;;;;;;;;3.44;100.00;98561.59;5058252;28;19916;-74
2021/01/22 09:21:24;;;;;;;;;;;;;;;3.56;100.00;98559.22;5038393;28;19913;-75
2021/01/22 09:23:52;;;;;;;;;;;;;;;3.68;100.00;98564.31;5041531;28;19939;-74
2021/01/22 09:26:19;;;;;;;;;;;;;;;3.80;100.00;98570.16;5047597;28;20369;-75
2021/01/22 09:28:46;;;;;;;;;;;;;;;3.93;100.00;98568.59;5076131;28;19985;-74
2021/01/22 09:31:11;;;;;;;;;;;;;;;4.05;100.00;98577.19;5073622;28;20296;-75
2021/01/22 09:33:37;;;;;;;;;;;;;;;4.20;100.00;98585.19;5055477;28;19917;-74
2021/01/22 09:36:02;;;;;;;;;;;;;;;4.34;100.00;98584.44;5040967;28;19963;-75
2021/01/22 09:38:30;;;;;;;;;;;;;;;4.48;100.00;98582.53;5042848;28;20329;-75
2021/01/22 09:40:56;;;;;;;;;;;;;;;4.63;100.00;98585.03;5073671;28;20368;-75
2021/01/22 09:43:24;;;;;;;;;;;;;;;4.80;100.00;98595.47;5056917;28;19920;-75
2021/01/22 09:45:49;;;;;;;;;;;;;;;4.94;100.00;98598.22;5040994;28;19940;-75
2021/01/22 09:48:17;;;;;;;;;;;;;;;5.10;100.00;98591.31;5059297;28;19920;-74
2021/01/22 09:50:51;;;;;;;;;;;;;;;5.26;99.98;98602.03;5070226;28;19975;-75
2021/01/22 09:53:34;;;;;;;;;;;;;;;5.44;99.53;98617.63;5040446;28;19923;-75
2021/01/22 09:56:50;;;;;;;;;;;;;;;5.65;99.23;98617.19;5052377;28;19923;-75
2021/01/22 09:59:23;;;;;;;;;;;;;;;5.82;99.06;98622.88;5040705;28;19948;-75
2021/01/22 10:02:06;;;;;;;;;;;;;;;5.96;99.21;98626.47;5047683;28;19928;-75
2021/01/22 10:05:11;;;;;;;;;;;;;;;6.15;98.97;98626.31;5050061;28;19921;-75
2021/01/22 10:07:56;;;;;;;;;;;;;;;6.33;98.63;98638.31;5059646;28;19921;-75
2021/01/22 10:10:52;;;;;;;;;;;;;;;6.54;98.49;98637.81;5061020;28;19962;-76
2021/01/22 10:13:26;;;;;;;;;;;;;;;6.69;98.51;98640.22;5058033;28;19939;-75
2021/01/22 10:16:02;;;;;;;;;;;;;;;6.84;98.29;98647.28;5052587;28;20032;-76
2021/01/22 10:18:56;;;;;;;;;;;;;;;7.01;98.56;98652.09;5046754;28;20418;-76
2021/01/22 10:21:33;;;;;;;;;;;;;;;7.14;98.50;98648.44;5059046;28;19967;-75
2021/01/22 10:24:10;;;;;;;;;;;;;;;7.18;99.87;98651.38;5028931;28;19917;-76
2021/01/22 10:26:56;;;;;;;;;;;;;;;7.27;98.95;98660.50;5052390;28;19920;-75
2021/01/22 10:36:03;;;;;;;;;;;;;;;7.55;97.77;98672.16;5048412;28;19929;-75
2021/01/22 10:39:10;;;;;;;;;;;;;;;7.60;97.66;98670.09;5071958;28;19919;-76
2021/01/22 10:42:41;;;;;;;;;;;;;;;7.70;97.50;98684.75;5026156;28;19964;-75
2021/01/22 10:56:47;;;;;;;;;;;;;;;7.99;96.67;98707.09;5036000;28;20277;-76
2021/01/22 11:06:16;;;;;;;;;;;;;;;8.23;95.38;98698.41;4968839;28;20365;-75
2021/01/22 11:08:41;;;;;;;;;;;;;;;8.31;95.47;98704.28;4937480;29;20372;-75
2021/01/22 11:11:09;;;;;;;;;;;;;;;8.39;95.89;98698.78;4934353;29;19938;-75
2021/01/22 11:14:43;;;;;;;;;;;;;;;;;;;;;
2021/01/22 11:20:29;;;;;;;;;;;;;;;8.68;97.03;98708.41;4972765;28;19923;-76
2021/01/22 11:23:11;;;;;;;;;;;;;;;8.80;96.14;98710.50;5005325;28;20001;-76
2021/01/22 11:25:37;;;;;;;;;;;;;;;8.88;95.52;98716.03;5025058;28;20376;-76
2021/01/22 11:28:03;;;;;;;;;;;;;;;8.96;94.96;98717.19;5037578;28;20023;-75
2021/01/22 11:30:34;;;;;;;;;;;;;;;9.02;96.05;98713.09;4992448;28;19997;-75
2021/01/22 11:33:00;;;;;;;;;;;;;;;9.11;94.34;98716.69;4978865;28;19918;-75
2021/01/22 11:35:25;;;;;;;;;;;;;;;9.18;94.04;98717.00;4966296;28;19957;-75
2021/01/22 11:37:58;;;;;;;;;;;;;;;9.24;94.04;98714.03;4967123;28;19914;-75
2021/01/22 11:40:34;;;;;;;;;;;;;;;9.29;93.43;98717.47;5015047;28;19997;-75
2021/01/22 11:43:02;;;;;;;;;;;;;;;9.33;93.42;98709.28;5001341;28;19967;-75
2021/01/22 11:45:39;;;;;;;;;;;;;;;9.38;92.88;98720.22;5019987;28;19913;-75
2021/01/22 11:51:59;;;;;;;;;;;;;;;9.45;92.39;98723.28;4960135;28;20474;-76
2021/01/22 11:54:31;;;;;;;;;;;;;;;9.47;92.27;98717.41;4981262;28;19952;-75
2021/01/22 11:57:04;;;;;;;;;;;;;;;9.49;91.73;98718.72;5016400;28;19921;-75
2021/01/22 11:59:33;;;;;;;;;;;;;;;9.50;91.05;98716.75;5001708;28;19948;-75
2021/01/22 12:01:58;;;;;;;;;;;;;;;9.52;91.52;98723.59;5000547;28;19917;-75
2021/01/22 12:04:24;;;;;;;;;;;;;;;9.53;91.43;98716.91;4980047;28;20408;-75
2021/01/22 12:06:50;;;;;;;;;;;;;;;9.54;91.18;98712.19;5006131;28;20004;-75
2021/01/22 12:09:16;;;;;;;;;;;;;;;9.54;91.30;98715.75;5052612;28;19917;-75
2021/01/22 12:11:42;;;;;;;;;;;;;;;9.55;90.98;98716.56;5071762;28;19928;-75
2021/01/22 12:14:07;;;;;;;;;;;;;;;9.56;90.71;98721.78;5061417;28;19951;-75
2021/01/22 12:16:32;;;;;;;;;;;;;;;9.57;90.80;98725.38;5058672;28;19961;-76
2021/01/22 12:18:58;;;;;;;;;;;;;;;9.56;90.79;98727.34;5053762;28;19916;-75
2021/01/22 12:21:45;;;;;;;;;;;;;;;9.59;90.64;98726.69;5076310;28;19924;-76
2021/01/22 12:24:11;;;;;;;;;;;;;;;9.58;90.93;98730.59;5071153;28;19999;-76
2021/01/22 12:26:46;;;;;;;;;;;;;;;9.57;90.95;98726.19;5036612;28;19979;-75
2021/01/22 12:29:14;;;;;;;;;;;;;;;9.58;90.73;98719.50;5057954;28;19916;-75
2021/01/22 12:31:42;;;;;;;;;;;;;;;9.58;90.58;98716.75;5043887;28;20415;-75
2021/01/22 12:34:10;;;;;;;;;;;;;;;9.60;90.47;98724.72;5061218;28;20420;-75
2021/01/22 12:36:38;;;;;;;;;;;;;;;9.59;90.43;98729.44;5043685;28;19955;-75
2021/01/22 12:39:06;;;;;;;;;;;;;;;9.59;90.57;98726.69;5074766;28;19958;-75
2021/01/22 12:41:34;;;;;;;;;;;;;;;9.57;90.24;98723.41;5073437;28;20398;-75
2021/01/22 12:44:03;;;;;;;;;;;;;;;9.58;90.24;98722.28;5060058;28;19916;-75
2021/01/22 12:46:29;;;;;;;;;;;;;;;9.56;90.03;98719.03;5042183;28;19927;-75
2021/01/22 12:49:02;;;;;;;;;;;;;;;9.56;90.06;98721.78;5035429;28;20277;-75
2021/01/22 12:51:32;;;;;;;;;;;;;;;9.56;90.23;98719.03;5036056;28;19912;-75
2021/01/22 12:54:08;;;;;;;;;;;;;;;9.57;90.33;98715.09;5048908;28;19922;-75
2021/01/22 12:56:34;;;;;;;;;;;;;;;9.57;89.96;98719.84;5042200;28;19962;-75
2021/01/22 12:59:05;;;;;;;;;;;;;;;9.59;90.12;98721.13;5060379;28;19917;-75
2021/01/22 13:01:30;;;;;;;;;;;;;;;9.58;89.86;98719.50;5070605;28;19912;-75
2021/01/22 13:03:58;;;;;;;;;;;;;;;9.60;89.88;98719.16;5042626;28;20003;-75
2021/01/22 13:06:29;;;;;;;;;;;;;;;9.61;89.75;98718.00;5054696;28;20438;-75
2021/01/22 13:08:59;;;;;;;;;;;;;;;9.61;89.60;98718.84;5079041;28;19923;-76
2021/01/22 13:11:24;;;;;;;;;;;;;;;9.62;89.52;98716.88;5054691;28;19924;-75
2021/01/22 13:13:52;;;;;;;;;;;;;;;9.63;89.56;98722.09;5056892;28;19923;-75
2021/01/22 13:16:20;;;;;;;;;;;;;;;9.63;89.56;98705.44;5059362;28;20352;-75
2021/01/22 13:18:46;;;;;;;;;;;;;;;9.66;89.66;98709.53;5072278;28;19916;-75
2021/01/22 13:21:24;;;;;;;;;;;;;;;9.67;90.04;98710.34;5066196;28;19967;-76
2021/01/22 13:24:01;;;;;;;;;;;;;;;9.68;89.93;98707.25;5040458;28;19951;-75
2021/01/22 13:26:37;;;;;;;;;;;;;;;9.70;90.07;98715.25;5053523;28;19917;-76
2021/01/22 13:29:06;;;;;;;;;;;;;;;9.71;89.62;98714.09;5063111;28;20007;-75
2021/01/22 13:31:32;;;;;;;;;;;;;;;9.71;89.50;98714.88;5060221;28;19916;-75
2021/01/22 13:34:04;;;;;;;;;;;;;;;9.73;89.42;98711.81;5062945;28;19916;-75
2021/01/22 13:36:30;;;;;;;;;;;;;;;9.73;89.18;98711.81;5039770;28;19925;-75